Ana Sayfa
METAR-TAF:

METAR-TAF

Havaalanları :

Montreal Trudeau, Quebec, Kanada

Enlem: 45-28N, Boylam: 073-45W, yükseklik: 31 m

Güncel hava durumu gözlemi

Rapor saat 17:00 UTC de 15 dakika önce yapıldı.
Rüzgar güneydan 3 kt
Sıcaklık 25°C
Nem 39%
Basınç 1013 hPa
Görüş mesafesi: 48.3 km
6000 ft yükseklikte az bulutlu
25000 ft yükseklikte parçalı bulutlu

METAR: CYUL 181700Z 18003KT 30SM FEW060 SCT250 25/10 A2992 RMK CU1CI2 CC ASOCTD SLP132 DENSITY ALT 1300FT

Saat: 13:15 (17:15 UTC)

Tahmin

Rapor saat 14:38 UTC de 2 saat ve 37 dakika önce yapıldı.
Ayın 18'si saat 15 UTC'den ayın 19'si saat 12 UTC'ye kadar geçerli Tahmin
Rüzgar değişken yönden 3 kt
Görüş mesafesi: 10 km
8000 ft yükseklikte az bulutlu
22000 ft yükseklikte parçalı bulutlu
Ayın 18'si saat 1600 UTC'den
Rüzgar güneydan 8 kt
Görüş mesafesi: 10 km
6000 ft yükseklikte parçalı bulutlu

TAF: CYUL 181438Z 1815/1912 VRB03KT P6SM FEW080 SCT220 FM181600 19008KT P6SM SCT060 RMK NXT FCST BY 181800Z

4.000'den fazla havaalanı için hava durumu gözlemleri ve tahminleri (METAR ve TAF raporları).

Kullanılabilir istasyonlar harita üzerinde sarı ve kırmızı noktalarla gösterilir.

İstasyonun adını görmek için fareyi noktanın üzerinde gezdirin.

Sonrasında hava gözlem ve tahminlerini görmek için tıklayın.

Haritayı değiştirmek için: yaklaştırmak için siyah artı işaretli yeşil düğmeye ve uzaklaştırmak için de eksi işaretli düğmeye hızla tıklayın; bitişik haritalar için yeşil okları kullanın.


METAR-TAF: